Time;durP1;ratioP1;P1;durP2;ratioP2;P2;SDS_P1;SDS_P2;PMS_P1;PMS_P2;Temp;Humidity;BMP_temperature;BMP_pressure;BME280_temperature;BME280_humidity;BME280_pressure;Samples;Min_cycle;Max_cycle;Signal;HPM_P1;HPM_P2
2022/08/05 00:00:34;;;;;;;6.65;4.38;;;24.50;99.90;;;-141.84;46.62;22102.94;5043273;28;20238;-74
2022/08/05 00:03:13;;;;;;;5.32;4.88;;;24.40;99.90;;;-141.84;46.79;22082.63;5048054;28;20248;-75
2022/08/05 00:05:43;;;;;;;5.20;4.25;;;24.30;99.90;;;-141.84;46.41;22109.03;5034259;28;20747;-73
2022/08/05 00:08:31;;;;;;;7.43;3.72;;;24.30;99.90;;;-141.84;46.75;22088.72;5034418;28;20588;-73
2022/08/05 00:11:09;;;;;;;4.45;3.63;;;24.40;99.90;;;-141.84;47.01;22074.47;5034015;28;20264;-75
2022/08/05 00:13:57;;;;;;;6.18;3.70;;;24.40;99.90;;;-141.84;47.41;22107.00;5034198;28;20226;-73
2022/08/05 00:16:26;;;;;;;4.47;3.58;;;24.40;99.90;;;-141.84;47.74;22107.00;5033132;28;20280;-74
2022/08/05 00:19:14;;;;;;;4.80;4.05;;;24.40;99.90;;;-141.84;47.55;22102.94;5033344;28;20597;-73
2022/08/05 00:21:42;;;;;;;5.15;3.38;;;24.40;99.90;;;-141.84;47.52;22092.78;5033426;28;20256;-73
2022/08/05 00:24:10;;;;;;;3.78;3.42;;;24.40;99.90;;;-141.84;47.77;22119.22;5033641;28;20229;-74
2022/08/05 00:26:52;;;;;;;3.88;3.55;;;24.40;99.90;;;-141.84;48.19;22054.13;5032036;28;20243;-73
2022/08/05 00:29:21;;;;;;;6.20;3.53;;;24.50;99.90;;;-141.84;48.64;22062.28;5033845;28;20202;-73
2022/08/05 00:31:53;;;;;;;5.03;3.55;;;24.40;99.90;;;-141.84;49.17;22037.88;5033329;28;20240;-74
2022/08/05 00:34:42;;;;;;;3.67;3.33;;;24.30;99.90;;;-141.84;49.59;21999.25;5034084;28;20237;-75
2022/08/05 00:37:30;;;;;;;4.20;3.40;;;24.20;99.90;;;-141.84;49.71;21993.13;5033369;28;20736;-74
2022/08/05 00:40:20;;;;;;;4.72;3.55;;;24.10;99.90;;;-141.84;50.37;21936.19;5033305;28;20724;-74
2022/08/05 00:42:59;;;;;;;5.32;3.53;;;24.00;99.90;;;-141.84;50.45;21956.53;5032759;28;20787;-75
2022/08/05 00:45:28;;;;;;;5.95;3.65;;;24.00;99.90;;;-141.84;51.00;21899.59;5033273;28;20316;-73
2022/08/05 00:48:13;;;;;;;4.68;3.70;;;23.90;99.90;;;-141.84;50.95;21926.03;5032595;28;20232;-73
2022/08/05 00:50:44;;;;;;;3.75;3.13;;;23.80;99.90;;;-141.84;51.00;21885.38;5033164;28;20193;-75
2022/08/05 00:53:15;;;;;;;4.43;3.45;;;23.70;99.90;;;-141.84;51.67;21883.31;5034300;28;20191;-75
2022/08/05 00:56:04;;;;;;;3.90;3.50;;;23.60;99.90;;;-141.84;52.11;21834.53;5033133;28;20565;-75
2022/08/05 00:58:36;;;;;;;4.68;3.80;;;23.60;99.90;;;-141.84;52.54;21824.34;5033651;28;20238;-73
2022/08/05 01:01:05;;;;;;;4.22;3.80;;;23.50;99.90;;;-141.84;52.83;21822.31;5044203;28;20307;-73
2022/08/05 01:03:36;;;;;;;4.22;3.70;;;23.40;99.90;;;-141.84;53.12;21834.53;5041615;28;20229;-74
2022/08/05 01:06:05;;;;;;;3.90;3.60;;;23.40;99.90;;;-141.84;52.99;21791.81;5031301;28;20312;-74
2022/08/05 01:08:41;;;;;;;4.88;3.88;;;23.30;99.90;;;-141.84;52.84;21869.09;5031054;28;20202;-74
2022/08/05 01:11:17;;;;;;;4.47;3.72;;;23.40;99.90;;;-141.84;53.65;21842.66;5031415;28;20183;-72
2022/08/05 01:14:04;;;;;;;6.57;3.90;;;23.30;99.90;;;-141.84;53.29;21842.66;5030765;28;20756;-73
2022/08/05 01:16:47;;;;;;;4.40;4.00;;;23.40;99.90;;;-141.84;53.31;21808.09;5030619;28;20226;-74
2022/08/05 01:19:36;;;;;;;4.30;3.90;;;23.40;99.90;;;-141.84;54.36;21765.38;5030484;28;20249;-74
2022/08/05 01:22:42;;;;;;;4.70;3.67;;;23.30;99.90;;;-141.84;54.58;21775.56;5030736;28;20736;-74
2022/08/05 01:25:57;;;;;;;11.05;4.70;;;23.30;99.90;;;-141.84;54.41;21802.00;5030230;28;20647;-73
2022/08/05 01:28:35;;;;;;;16.52;9.85;;;23.30;99.90;;;-141.84;54.01;21802.00;5029252;28;20234;-74
2022/08/05 01:31:11;;;;;;;22.33;18.67;;;23.30;99.90;;;-141.84;54.30;21869.09;5030605;28;20240;-72
2022/08/05 01:33:51;;;;;;;26.83;24.02;;;23.30;99.90;;;-141.84;54.55;21783.69;5030513;28;20229;-74
2022/08/05 01:36:26;;;;;;;45.47;40.72;;;23.30;99.90;;;-141.84;55.23;21771.50;5030706;28;20245;-73
2022/08/05 01:38:57;;;;;;;58.75;48.15;;;23.20;99.90;;;-141.84;54.90;21806.06;5030225;28;20273;-75
2022/08/05 01:41:34;;;;;;;49.72;44.38;;;23.30;99.90;;;-141.84;55.12;21777.59;5030745;28;20658;-73
2022/08/05 01:44:08;;;;;;;45.45;40.63;;;23.20;99.90;;;-141.84;55.51;21741.00;5030690;28;20292;-74
2022/08/05 01:46:39;;;;;;;35.70;32.10;;;23.20;99.90;;;-141.84;55.79;21747.09;5030279;28;20230;-75
2022/08/05 01:49:20;;;;;;;24.67;21.88;;;23.10;99.90;;;-141.84;55.74;21751.16;5030209;28;20225;-74
2022/08/05 01:51:58;;;;;;;16.20;14.65;;;23.10;99.90;;;-141.84;55.14;21791.81;5031037;28;20329;-74
2022/08/05 01:54:35;;;;;;;13.57;10.45;;;23.10;99.90;;;-141.84;55.58;21751.16;5031676;28;20375;-74
2022/08/05 01:57:18;;;;;;;9.90;8.48;;;23.10;99.90;;;-141.84;56.28;21702.34;5031118;28;20846;-73
2022/08/05 02:00:10;;;;;;;7.63;5.72;;;23.10;99.90;;;-141.84;56.18;21753.19;5036041;28;20329;-73
2022/08/05 02:02:51;;;;;;;6.28;4.45;;;23.00;99.90;;;-141.84;55.36;21826.41;5049540;28;20186;-75
2022/08/05 02:05:28;;;;;;;6.00;4.63;;;23.10;99.90;;;-141.84;55.25;21810.13;5032604;28;20265;-74
2022/08/05 02:07:57;;;;;;;6.03;4.10;;;23.10;99.90;;;-141.84;56.16;21749.13;5031797;28;20309;-73
2022/08/05 02:10:36;;;;;;;4.90;4.40;;;23.10;99.90;;;-141.84;56.47;21738.97;5031400;28;20308;-75
2022/08/05 02:13:13;;;;;;;5.00;3.75;;;23.00;99.90;;;-141.84;56.85;21669.81;5031440;28;20233;-74
2022/08/05 02:15:50;;;;;;;7.57;4.18;;;22.90;99.90;;;-141.84;57.53;21667.78;5030555;28;20234;-74
2022/08/05 02:18:25;;;;;;;6.35;4.63;;;22.80;99.90;;;-141.84;58.04;21616.97;5030828;28;20921;-74
2022/08/05 02:21:09;;;;;;;5.00;3.92;;;22.70;99.90;;;-141.84;57.17;21708.47;5031120;28;20233;-74
2022/08/05 02:23:46;;;;;;;10.52;4.00;;;22.70;99.90;;;-141.84;57.62;21684.06;5030550;28;20565;-73
2022/08/05 02:26:23;;;;;;;6.15;4.32;;;22.70;99.90;;;-141.84;58.21;21643.38;5032124;28;20277;-72
2022/08/05 02:28:56;;;;;;;6.20;3.90;;;22.70;99.90;;;-141.84;58.20;21659.66;5036835;28;20226;-76
2022/08/05 02:31:32;;;;;;;5.30;4.53;;;22.60;99.90;;;-141.84;58.57;21635.25;5044968;28;20234;-74
2022/08/05 02:34:08;;;;;;;6.05;4.00;;;22.50;99.90;;;-141.84;58.75;21594.59;5038742;28;20334;-72
2022/08/05 02:36:45;;;;;;;5.18;3.90;;;22.50;99.90;;;-141.84;59.29;21576.28;5031868;28;20652;-73
2022/08/05 02:39:19;;;;;;;5.13;3.67;;;22.40;99.90;;;-141.84;59.28;21574.25;5031025;28;20227;-75
2022/08/05 02:41:50;;;;;;;7.03;3.95;;;22.40;99.90;;;-141.84;59.75;21531.56;5031465;28;20182;-75
2022/08/05 02:44:30;;;;;;;6.75;4.15;;;22.30;99.90;;;-141.84;60.16;21545.78;5030924;28;20209;-73
2022/08/05 02:47:01;;;;;;;6.43;4.00;;;22.30;99.90;;;-141.84;59.76;21541.72;5030200;28;20236;-74
2022/08/05 02:49:36;;;;;;;6.63;4.22;;;22.20;99.90;;;-141.84;60.14;21492.94;5030180;28;20225;-73
2022/08/05 02:52:13;;;;;;;4.07;3.55;;;22.20;99.90;;;-141.84;60.36;21513.25;5031764;28;20265;-74
2022/08/05 02:54:59;;;;;;;5.78;4.20;;;22.20;99.90;;;-141.84;60.32;21560.03;5030297;28;20252;-75
2022/08/05 02:57:35;;;;;;;4.90;4.40;;;22.10;99.90;;;-141.84;59.76;21537.66;5031123;28;20226;-73
2022/08/05 03:00:23;;;;;;;4.72;4.25;;;22.10;99.90;;;-141.84;60.20;21509.19;5038489;28;20213;-66
2022/08/05 03:02:58;;;;;;;7.63;4.57;;;22.10;99.90;;;-141.84;60.94;21480.72;5045705;28;20344;-65
2022/08/05 03:05:27;;;;;;;4.63;4.10;;;22.00;99.90;;;-141.84;60.11;21501.06;5029930;28;20182;-67
2022/08/05 03:08:17;;;;;;;4.82;4.35;;;22.00;99.90;;;-141.84;59.92;21529.53;5029541;28;20206;-66
2022/08/05 03:10:56;;;;;;;4.95;4.13;;;22.00;99.90;;;-141.84;60.68;21484.78;5029168;28;20606;-68
2022/08/05 03:13:45;;;;;;;5.97;4.00;;;22.00;99.90;;;-141.84;61.23;21460.41;5029175;28;20222;-66
2022/08/05 03:16:29;;;;;;;5.75;4.07;;;22.00;99.90;;;-141.84;61.46;21419.72;5028844;28;20225;-66
2022/08/05 03:19:00;;;;;;;6.82;4.18;;;21.90;99.90;;;-141.84;62.01;21442.09;5028850;28;20226;-65
2022/08/05 03:21:35;;;;;;;6.78;4.28;;;21.80;99.90;;;-141.84;62.18;21427.88;5028758;28;20578;-65
2022/08/05 03:24:17;;;;;;;7.03;4.20;;;21.80;99.90;;;-141.84;62.54;21417.69;5029188;28;20222;-66
2022/08/05 03:26:58;;;;;;;4.93;4.18;;;21.80;99.90;;;-141.84;61.52;21436.00;5028728;28;20585;-65
2022/08/05 03:29:26;;;;;;;5.47;4.90;;;21.80;99.90;;;-141.84;61.02;21482.75;5029388;28;20254;-66
2022/08/05 03:32:16;;;;;;;4.65;4.00;;;21.80;99.90;;;-141.84;61.54;21423.81;5028819;28;20225;-66
2022/08/05 03:34:48;;;;;;;5.38;4.65;;;21.80;99.90;;;-141.84;61.85;21399.41;5028731;28;20257;-66
2022/08/05 03:37:20;;;;;;;5.10;4.60;;;21.80;99.90;;;-141.84;61.52;21446.16;5028731;28;20222;-67
2022/08/05 03:39:58;;;;;;;5.40;4.40;;;21.80;99.90;;;-141.84;61.83;21425.84;5028938;28;20284;-66
2022/08/05 03:42:31;;;;;;;4.82;4.35;;;21.70;99.90;;;-141.84;62.45;21423.81;5028661;28;20651;-65
2022/08/05 03:45:19;;;;;;;6.45;4.40;;;21.70;99.90;;;-141.84;62.48;21405.50;5028758;28;20236;-66
2022/08/05 03:47:50;;;;;;;4.53;4.13;;;21.70;99.90;;;-141.84;62.06;21468.53;5028180;28;20254;-67
2022/08/05 03:50:28;;;;;;;4.85;4.38;;;21.70;99.90;;;-141.84;61.93;21415.66;5029510;28;20432;-65
2022/08/05 03:53:05;;;;;;;5.47;4.15;;;21.70;99.90;;;-141.84;62.22;21379.06;5031286;28;20229;-66
2022/08/05 03:56:03;;;;;;;4.55;4.00;;;21.70;99.90;;;-141.84;62.26;21415.66;5031948;28;20689;-66
2022/08/05 03:58:45;;;;;;;4.68;4.00;;;21.70;99.90;;;-141.84;62.21;21431.94;5032228;28;20236;-67
2022/08/05 04:01:18;;;;;;;5.97;4.03;;;21.70;99.90;;;-141.84;62.54;21395.34;5046320;28;20746;-65
2022/08/05 04:03:51;;;;;;;4.72;4.18;;;21.80;99.90;;;-141.84;61.95;21444.13;5040871;28;20652;-65
2022/08/05 04:06:39;;;;;;;6.90;4.13;;;21.80;99.90;;;-141.84;60.37;21482.75;5032022;28;20253;-67
2022/08/05 04:09:17;;;;;;;5.95;4.50;;;22.00;99.90;;;-141.84;60.73;21460.41;5031979;28;20245;-66
2022/08/05 04:11:54;;;;;;;4.43;3.88;;;22.00;99.90;;;-141.84;61.24;21492.94;5031867;28;20197;-67
2022/08/05 04:14:25;;;;;;;4.60;4.03;;;22.00;99.90;;;-141.84;60.95;21482.75;5032813;28;20188;-65
2022/08/05 04:16:59;;;;;;;5.70;3.92;;;22.10;99.90;;;-141.84;60.66;21478.69;5031586;28;20237;-66
2022/08/05 04:19:30;;;;;;;7.70;4.15;;;22.10;99.90;;;-141.84;60.82;21472.59;5031715;28;20246;-66
2022/08/05 04:22:00;;;;;;;4.88;4.10;;;22.10;99.90;;;-141.84;60.28;21539.69;5031649;28;20230;-65
2022/08/05 04:24:40;;;;;;;4.30;3.90;;;22.20;99.90;;;-141.84;59.95;21533.59;5031731;28;20233;-65
2022/08/05 04:27:13;;;;;;;4.90;4.40;;;22.20;99.90;;;-141.84;60.54;21494.97;5031736;28;20222;-67
2022/08/05 04:29:42;;;;;;;6.28;4.53;;;22.20;99.90;;;-141.84;59.19;21592.56;5031893;28;20191;-66
2022/08/05 04:32:12;;;;;;;5.72;4.30;;;22.30;99.90;;;-141.84;59.25;21549.84;5032245;28;20233;-65
2022/08/05 04:34:42;;;;;;;6.72;4.05;;;22.30;99.90;;;-141.84;59.74;21562.06;5031627;28;20283;-66
2022/08/05 04:37:12;;;;;;;5.38;3.80;;;22.40;99.90;;;-141.84;58.59;21604.75;5031280;28;20236;-65
2022/08/05 04:39:40;;;;;;;4.28;3.88;;;22.50;99.90;;;-141.84;58.66;21663.72;5031571;28;20252;-66
2022/08/05 04:42:09;;;;;;;4.20;3.80;;;22.70;99.90;;;-141.84;58.04;21659.66;5031256;28;20225;-65
2022/08/05 04:44:38;;;;;;;4.93;4.43;;;22.80;99.90;;;-141.84;57.59;21684.06;5031785;28;20213;-66
2022/08/05 04:47:06;;;;;;;6.60;4.32;;;22.80;99.90;;;-141.84;56.70;21736.94;5031790;28;20262;-66
2022/08/05 04:49:37;;;;;;;8.68;4.47;;;23.00;99.90;;;-141.84;56.46;21710.50;5031424;28;20230;-66
2022/08/05 04:52:27;;;;;;;7.38;4.50;;;23.00;99.90;;;-141.84;56.37;21692.19;5031282;28;20222;-67
2022/08/05 04:54:56;;;;;;;8.35;4.05;;;23.00;99.90;;;-141.84;56.56;21696.25;5031415;28;20228;-66
2022/08/05 04:57:29;;;;;;;5.30;4.25;;;23.00;99.90;;;-141.84;56.39;21704.38;5031902;28;20316;-66
2022/08/05 05:00:05;;;;;;;5.20;4.20;;;23.00;99.90;;;-141.84;55.79;21694.22;5035773;28;20316;-66
2022/08/05 05:02:34;;;;;;;4.30;3.90;;;22.90;99.90;;;-141.84;56.41;21671.84;5049726;28;20190;-67
2022/08/05 05:05:10;;;;;;;6.22;3.67;;;23.00;99.90;;;-141.84;56.71;21684.06;5031422;28;20206;-67
2022/08/05 05:07:55;;;;;;;4.65;3.40;;;23.00;99.90;;;-141.84;53.32;21924.00;5030879;28;20230;-66
2022/08/05 05:10:29;;;;;;;6.20;3.38;;;23.50;99.90;;;-141.84;51.00;22196.50;5030845;28;20236;-65
2022/08/05 05:13:01;;;;;;;4.53;3.33;;;24.20;99.90;;;-141.84;48.17;22462.91;5030950;28;20317;-68
2022/08/05 05:15:32;;;;;;;5.85;3.50;;;24.90;99.90;;;-141.84;47.38;22493.41;5031144;28;20241;-66
2022/08/05 05:18:21;;;;;;;5.20;3.45;;;25.30;99.90;;;-141.84;47.38;22566.63;5030539;28;20580;-66
2022/08/05 05:21:00;;;;;;;5.40;3.30;;;25.70;99.90;;;-141.84;48.19;22497.47;5030904;28;20310;-66
2022/08/05 05:23:30;;;;;;;7.50;3.70;;;25.60;99.90;;;-141.84;48.96;22432.41;5031460;28;20206;-66
2022/08/05 05:26:18;;;;;;;5.05;3.40;;;25.70;99.90;;;-141.84;51.16;22269.69;5031800;28;20559;-65
2022/08/05 05:28:46;;;;;;;6.35;4.07;;;25.40;99.90;;;-141.84;52.29;22145.66;5031286;28;20721;-66
2022/08/05 05:31:14;;;;;;;6.32;3.83;;;25.10;99.90;;;-141.84;53.99;22037.88;5031360;28;20225;-65
2022/08/05 05:33:45;;;;;;;6.85;4.38;;;24.70;99.90;;;-141.84;54.82;21976.88;5031394;28;20330;-66
2022/08/05 05:36:28;;;;;;;8.73;3.90;;;24.50;99.90;;;-141.84;55.31;21936.19;5031359;28;20237;-67
2022/08/05 05:38:58;;;;;;;6.60;4.20;;;24.40;99.90;;;-141.84;55.43;21928.06;5031273;28;20249;-66
2022/08/05 05:41:27;;;;;;;7.50;4.70;;;24.30;99.90;;;-141.84;55.97;21934.16;5031473;28;20317;-67
2022/08/05 05:44:07;;;;;;;4.95;4.00;;;24.20;99.90;;;-141.84;56.29;21915.88;5031377;28;20206;-66
2022/08/05 05:46:55;;;;;;;6.90;4.07;;;24.20;99.90;;;-141.84;55.80;21954.50;5003122;28;20227;-66
2022/08/05 05:49:25;;;;;;;5.18;4.30;;;24.30;99.90;;;-141.84;55.41;21964.66;4991624;28;20242;-67
2022/08/05 05:51:53;;;;;;;4.85;4.45;;;24.20;99.90;;;-141.84;55.42;21956.53;4991715;28;20710;-66
2022/08/05 05:54:23;;;;;;;6.97;4.07;;;24.30;99.90;;;-141.84;55.45;21907.72;4991626;28;20224;-66
2022/08/05 05:57:11;;;;;;;6.10;4.15;;;24.30;99.90;;;-141.84;55.14;21970.78;4991758;28;20231;-67
2022/08/05 05:59:46;;;;;;;6.32;4.68;;;24.30;99.90;;;-141.84;55.34;21972.81;4993794;28;20610;-66
2022/08/05 06:02:16;;;;;;;6.10;4.38;;;24.30;99.90;;;-141.84;54.73;22052.09;5011466;28;20206;-66
2022/08/05 06:04:59;;;;;;;7.43;4.95;;;24.50;99.90;;;-141.84;53.86;22111.09;4991290;28;20301;-67
2022/08/05 06:07:30;;;;;;;7.97;4.50;;;24.70;99.90;;;-141.84;53.07;22139.56;4991504;28;20734;-68
2022/08/05 06:10:11;;;;;;;5.22;4.18;;;24.90;99.90;;;-141.84;52.47;22192.44;4991314;28;20293;-67
2022/08/05 06:12:40;;;;;;;5.00;3.78;;;25.10;99.90;;;-141.84;52.16;22231.06;4991426;28;20718;-68
2022/08/05 06:15:10;;;;;;;6.00;3.58;;;25.20;99.90;;;-141.84;52.68;22137.50;4990550;28;20282;-67
2022/08/05 06:17:51;;;;;;;4.85;3.60;;;25.20;99.90;;;-141.84;53.13;22094.81;5007282;28;20218;-66
2022/08/05 06:20:21;;;;;;;5.78;3.85;;;25.00;99.90;;;-141.84;53.56;22098.88;5011149;28;20317;-66
2022/08/05 06:22:50;;;;;;;5.50;3.50;;;24.90;99.90;;;-141.84;54.49;22017.53;5011177;28;20237;-66
2022/08/05 06:25:19;;;;;;;6.85;3.58;;;24.70;99.90;;;-141.84;54.81;21978.91;5010624;28;20306;-66
2022/08/05 06:28:07;;;;;;;5.65;4.00;;;24.60;99.90;;;-141.84;55.74;21938.22;5011183;28;20234;-66
2022/08/05 06:30:48;;;;;;;5.50;4.20;;;24.30;99.90;;;-141.84;56.46;21897.56;5010720;28;20321;-66
2022/08/05 06:33:16;;;;;;;7.95;4.10;;;24.20;99.90;;;-141.84;56.91;21842.66;5010785;28;20230;-66
2022/08/05 06:36:00;;;;;;;6.07;3.72;;;24.00;99.90;;;-141.84;58.23;21806.06;5010753;28;20569;-66
2022/08/05 06:38:36;;;;;;;7.30;4.40;;;23.80;99.90;;;-141.84;60.39;21704.38;5010807;28;20218;-65
2022/08/05 06:41:06;;;;;;;5.28;3.72;;;23.60;99.90;;;-141.84;63.73;21529.53;5030463;28;20222;-66
2022/08/05 06:43:35;;;;;;;5.38;4.00;;;23.20;99.90;;;-141.84;65.23;21468.53;5030235;28;20222;-65
2022/08/05 06:46:24;;;;;;;5.00;4.50;;;22.90;99.90;;;-141.84;66.11;21444.13;5014436;28;20693;-65
2022/08/05 06:48:57;;;;;;;5.95;4.72;;;22.70;99.90;;;-141.84;65.70;21438.03;5030327;28;20287;-65
2022/08/05 06:51:28;;;;;;;6.80;4.90;;;22.60;99.90;;;-141.84;67.33;21405.50;5030265;28;20226;-66
2022/08/05 06:53:59;;;;;;;6.43;4.72;;;22.50;99.90;;;-141.84;67.75;21413.63;5029979;28;20360;-65
2022/08/05 06:56:32;;;;;;;6.15;4.10;;;22.50;99.90;;;-141.84;68.78;21368.91;5030664;28;20556;-65
2022/08/05 06:59:02;;;;;;;5.93;4.20;;;22.50;99.90;;;-141.84;67.03;21395.34;5030576;28;20276;-66
2022/08/05 07:01:36;;;;;;;8.98;4.80;;;22.50;99.90;;;-141.84;67.07;21427.88;5029639;28;20232;-66
2022/08/05 07:04:09;;;;;;;7.03;4.20;;;22.60;99.90;;;-141.84;65.53;21476.66;5030004;28;20226;-65
2022/08/05 07:06:41;;;;;;;4.68;4.00;;;22.70;99.90;;;-141.84;64.59;21555.97;5028381;28;20276;-67
2022/08/05 07:09:09;;;;;;;7.93;4.53;;;22.90;99.90;;;-141.84;63.37;21633.22;5028995;28;20218;-64
2022/08/05 07:11:38;;;;;;;6.80;4.07;;;23.10;99.90;;;-141.84;62.53;21661.69;5028898;28;20645;-66
2022/08/05 07:17:00;;;;;;;4.38;3.92;;;23.20;99.90;;;-141.84;62.23;21657.63;5028771;28;20321;-67
2022/08/05 07:19:49;;;;;;;5.63;4.00;;;23.40;99.90;;;-141.84;61.77;21755.22;5028892;28;20752;-65
2022/08/05 07:22:37;;;;;;;5.97;3.95;;;23.50;99.90;;;-141.84;60.44;21804.03;5029063;28;20234;-66
2022/08/05 07:25:07;;;;;;;6.35;3.92;;;23.70;99.90;;;-141.84;59.79;21850.78;5028780;28;20229;-66
2022/08/05 07:27:57;;;;;;;8.57;4.07;;;23.90;99.90;;;-141.84;59.32;21936.19;5033036;28;20226;-66
2022/08/05 07:30:36;;;;;;;7.82;4.55;;;24.10;99.90;;;-141.84;57.59;21954.50;5032874;28;20317;-65
2022/08/05 07:33:08;;;;;;;6.47;4.40;;;24.20;99.90;;;-141.84;56.69;22005.34;5032461;28;20213;-66
2022/08/05 07:35:43;;;;;;;5.22;4.10;;;24.20;99.90;;;-141.84;56.93;21946.38;5032771;28;20182;-66
2022/08/05 07:38:32;;;;;;;6.43;3.80;;;24.20;99.90;;;-141.84;57.79;22021.59;5032948;28;20751;-66
2022/08/05 07:41:16;;;;;;;5.63;3.88;;;24.30;99.90;;;-141.84;56.91;22033.81;5013038;28;20232;-65
2022/08/05 07:44:07;;;;;;;4.88;4.03;;;24.50;99.90;;;-141.84;55.28;22090.75;5032791;28;20217;-65
2022/08/05 07:46:47;;;;;;;7.65;3.70;;;24.60;99.90;;;-141.84;54.65;22111.09;5014713;28;20230;-66
2022/08/05 07:49:17;;;;;;;7.25;4.28;;;24.70;99.90;;;-141.84;53.51;22218.84;5012761;28;20230;-66
2022/08/05 07:51:46;;;;;;;4.22;3.50;;;24.90;99.90;;;-141.84;54.17;22127.34;5012546;28;20227;-67
2022/08/05 07:54:25;;;;;;;5.90;3.88;;;24.90;99.90;;;-141.84;54.41;22111.09;5012645;28;20344;-67
2022/08/05 07:57:01;;;;;;;4.85;3.58;;;25.00;99.90;;;-141.84;54.82;22163.94;5013418;28;20300;-66
2022/08/05 07:59:51;;;;;;;4.93;3.30;;;24.90;99.90;;;-141.84;54.50;22133.44;5014883;28;20671;-65
2022/08/05 08:02:25;;;;;;;5.95;3.88;;;25.00;99.90;;;-141.84;54.15;22200.56;5033439;28;20737;-66
2022/08/05 08:05:13;;;;;;;5.45;3.55;;;25.00;99.90;;;-141.84;51.92;22346.97;4993659;28;20690;-66
2022/08/05 08:07:42;;;;;;;6.32;3.45;;;25.30;99.90;;;-141.84;51.25;22371.38;4993507;28;20227;-66
2022/08/05 08:10:28;;;;;;;6.47;4.18;;;25.40;99.90;;;-141.84;50.57;22405.97;4993461;28;20222;-65
2022/08/05 08:12:57;;;;;;;6.65;3.75;;;25.60;99.90;;;-141.84;50.81;22430.38;4993470;28;20718;-69
2022/08/05 08:15:27;;;;;;;4.97;3.80;;;25.70;99.90;;;-141.84;50.05;22469.00;5005649;28;20248;-64
2022/08/05 08:18:15;;;;;;;5.45;3.70;;;25.90;99.90;;;-141.84;50.97;22416.13;4993374;28;20252;-64
2022/08/05 08:20:50;;;;;;;5.05;3.58;;;25.80;99.90;;;-141.84;50.73;22442.56;4993228;28;20609;-64
2022/08/05 08:23:31;;;;;;;4.13;3.28;;;25.90;99.90;;;-141.84;50.54;22442.56;4993910;28;20196;-67
2022/08/05 08:26:20;;;;;;;5.18;3.75;;;25.90;99.90;;;-141.84;50.20;22430.38;4993853;28;20220;-67
2022/08/05 08:28:58;;;;;;;5.38;4.22;;;25.90;99.90;;;-141.84;50.47;22391.72;5013418;28;20245;-66
2022/08/05 08:31:48;;;;;;;4.20;3.80;;;25.70;99.90;;;-141.84;50.62;22330.72;5012610;28;20227;-67
2022/08/05 08:34:17;;;;;;;5.97;3.67;;;25.40;99.90;;;-141.84;51.37;22296.13;5012660;28;20226;-66
2022/08/05 08:36:57;;;;;;;6.55;4.10;;;25.60;99.90;;;-141.84;50.52;22405.97;5016400;28;20579;-68
2022/08/05 08:39:33;;;;;;;5.85;3.90;;;25.60;99.90;;;-141.84;49.10;22538.16;5032164;28;20233;-67
2022/08/05 08:42:08;;;;;;;5.35;4.13;;;25.90;99.90;;;-141.84;49.49;22548.31;5032135;28;20275;-65
2022/08/05 08:44:59;;;;;;;4.88;3.97;;;26.10;99.90;;;-141.84;49.64;22566.63;5032063;28;20221;-65
2022/08/05 08:47:52;;;;;;;5.80;3.88;;;26.20;99.90;;;-141.84;50.44;22440.53;5031697;28;20213;-65
2022/08/05 08:50:43;;;;;;;3.92;3.30;;;26.00;99.90;;;-141.84;51.32;22302.25;5031957;28;20695;-65
2022/08/05 08:53:37;;;;;;;3.47;3.15;;;25.80;99.90;;;-141.84;52.66;22216.81;5032568;28;20206;-65
2022/08/05 08:56:12;;;;;;;5.63;3.13;;;25.60;99.90;;;-141.84;53.05;22202.59;5032229;28;20317;-66
2022/08/05 08:58:42;;;;;;;4.32;3.50;;;25.30;99.90;;;-141.84;53.13;22117.19;5031265;28;20316;-66
2022/08/05 09:01:16;;;;;;;4.15;3.72;;;25.20;99.90;;;-141.84;53.79;22123.28;5031258;28;20236;-66
2022/08/05 09:03:50;;;;;;;4.65;3.85;;;25.10;99.90;;;-141.84;53.93;22125.31;5031501;28;20702;-64
2022/08/05 09:06:28;;;;;;;4.32;3.80;;;25.10;99.90;;;-141.84;54.09;22229.03;5031310;28;20752;-64
2022/08/05 09:09:00;;;;;;;4.15;3.60;;;25.20;99.90;;;-141.84;53.47;22342.91;5031587;28;20230;-64
2022/08/05 09:11:30;;;;;;;5.38;3.90;;;25.40;99.90;;;-141.84;52.21;22363.25;5032214;28;20213;-63
2022/08/05 09:14:18;;;;;;;6.38;3.88;;;25.70;99.90;;;-141.84;50.05;22483.25;5011970;28;20700;-64
2022/08/05 09:17:09;;;;;;;6.70;4.20;;;26.00;99.90;;;-141.84;49.66;22473.06;5031647;28;20230;-63
2022/08/05 09:20:00;;;;;;;6.20;4.13;;;26.20;99.90;;;-141.84;49.57;22458.84;5011860;28;20729;-64
2022/08/05 09:23:07;;;;;;;4.78;3.42;;;26.20;99.90;;;-141.84;49.62;22501.53;5011540;28;20636;-64
2022/08/05 09:25:39;;;;;;;4.68;3.03;;;26.30;99.90;;;-141.84;48.69;22586.97;5011082;28;20221;-64
2022/08/05 09:28:28;;;;;;;4.25;3.30;;;26.60;99.90;;;-141.84;47.12;22670.34;5011036;28;20611;-64
2022/08/05 09:31:04;;;;;;;5.70;3.75;;;26.70;99.90;;;-141.84;47.26;22670.34;5011603;28;20305;-65
2022/08/05 09:33:57;;;;;;;4.90;3.03;;;26.90;99.90;;;-141.84;47.23;22674.41;5011104;28;20232;-66
2022/08/05 09:36:40;;;;;;;3.90;3.08;;;26.90;99.90;;;-141.84;47.23;22692.72;5011062;28;20820;-68
2022/08/05 09:39:23;;;;;;;3.95;3.00;;;26.90;99.90;;;-141.84;47.25;22690.69;5011156;28;20253;-68
2022/08/05 09:42:09;;;;;;;4.82;3.22;;;27.10;99.90;;;-141.84;48.00;22706.97;5011271;28;20601;-64
2022/08/05 09:44:47;;;;;;;4.60;3.13;;;27.20;99.90;;;-141.84;47.61;22731.38;5011082;28;20657;-65
2022/08/05 09:47:21;;;;;;;4.45;3.40;;;27.10;99.90;;;-141.84;46.98;22755.78;5011538;28;20234;-66
2022/08/05 09:49:51;;;;;;;6.63;3.42;;;27.20;99.90;;;-141.84;46.53;22755.78;5010103;28;20228;-66
2022/08/05 09:52:33;;;;;;;4.47;3.10;;;27.20;99.90;;;-141.84;46.89;22743.56;5010881;28;20589;-67
2022/08/05 09:55:06;;;;;;;5.45;3.88;;;27.20;99.90;;;-141.84;45.12;22910.34;5010833;28;20254;-64
2022/08/05 09:57:54;;;;;;;4.07;3.17;;;27.40;99.90;;;-141.84;45.64;22871.72;5010790;28;20241;-65
2022/08/05 10:00:27;;;;;;;6.25;3.30;;;27.40;99.90;;;-141.84;44.81;23032.38;5010968;28;20268;-65
2022/08/05 10:02:58;;;;;;;3.97;3.58;;;27.70;99.90;;;-141.84;43.19;23256.13;5010635;28;20257;-65
2022/08/05 10:05:29;;;;;;;5.32;3.53;;;28.20;99.90;;;-141.84;43.66;23164.59;5011441;28;20287;-66
2022/08/05 10:08:05;;;;;;;3.97;3.58;;;28.30;99.90;;;-141.84;42.25;23313.09;5010560;28;20242;-70
2022/08/05 10:10:53;;;;;;;4.20;3.28;;;28.60;99.90;;;-141.84;43.23;23286.66;5010820;28;20599;-64
2022/08/05 10:13:31;;;;;;;5.03;3.00;;;28.70;99.90;;;-141.84;42.91;23345.66;5010759;28;20281;-64
2022/08/05 10:16:33;;;;;;;4.32;2.97;;;28.70;99.90;;;-141.84;43.06;23323.28;5010416;28;20238;-64
2022/08/05 10:19:12;;;;;;;3.78;3.28;;;28.90;99.90;;;-141.84;42.16;23378.19;5010400;28;20598;-64
2022/08/05 10:21:41;;;;;;;5.60;3.42;;;29.00;99.90;;;-141.84;42.45;23412.78;5010376;28;20228;-65
2022/08/05 10:24:12;;;;;;;4.55;3.58;;;28.90;99.90;;;-141.84;42.59;23331.41;5010586;28;20323;-68
2022/08/05 10:26:44;;;;;;;5.20;3.58;;;28.90;99.90;;;-141.84;43.03;23315.13;5010764;28;20233;-68
2022/08/05 10:29:21;;;;;;;4.03;3.10;;;28.90;99.90;;;-141.84;43.95;23217.50;5011135;28;20245;-67
2022/08/05 10:31:51;;;;;;;3.45;3.10;;;28.80;99.90;;;-141.84;43.68;23091.38;5010481;28;20284;-66
2022/08/05 10:34:39;;;;;;;4.60;3.30;;;28.50;99.90;;;-141.84;45.36;22920.53;5010423;28;20231;-68
2022/08/05 10:37:08;;;;;;;4.47;3.83;;;28.20;99.90;;;-141.84;45.71;22924.59;5010514;28;20717;-66
2022/08/05 10:39:43;;;;;;;4.68;3.90;;;27.80;99.90;;;-141.84;45.25;22926.63;5010210;28;20699;-67
2022/08/05 10:42:37;;;;;;;4.13;3.45;;;27.70;99.90;;;-141.84;45.28;22920.53;5007945;28;20328;-67
2022/08/05 10:45:15;;;;;;;5.00;3.67;;;27.70;99.90;;;-141.84;44.95;23026.28;5011322;28;20593;-67
2022/08/05 10:48:33;;;;;;;7.57;3.97;;;27.90;99.90;;;-141.84;43.47;23184.94;5010683;28;20226;-66
2022/08/05 10:51:23;;;;;;;3.88;3.58;;;28.20;99.90;;;-141.84;42.83;23248.00;5010889;28;20222;-67